createdAt,value
2022-12-27T00:02:13.866Z,35.53
2022-12-27T00:04:40.530Z,38.70
2022-12-27T00:07:07.372Z,37.10
2022-12-27T00:09:33.978Z,39.30
2022-12-27T00:17:18.895Z,38.58
2022-12-27T00:19:45.508Z,36.67
2022-12-27T00:25:38.870Z,37.47
2022-12-27T00:28:05.551Z,35.75
2022-12-27T00:30:32.664Z,29.73
2022-12-27T00:32:59.258Z,29.98
2022-12-27T00:35:25.795Z,29.42
2022-12-27T00:37:52.362Z,28.90
2022-12-27T01:19:36.471Z,33.40
2022-12-27T01:22:04.089Z,32.17
2022-12-27T01:33:39.284Z,30.60
2022-12-27T01:36:14.842Z,31.65
2022-12-27T01:38:44.777Z,34.40
2022-12-27T01:41:51.075Z,32.25
2022-12-27T01:45:01.301Z,31.73
2022-12-27T01:47:51.562Z,34.20
2022-12-27T01:50:40.988Z,34.88
2022-12-27T01:53:25.875Z,36.15
2022-12-27T01:59:58.768Z,31.52
2022-12-27T02:50:31.156Z,18.15
2022-12-27T03:00:44.369Z,16.77
2022-12-27T03:03:29.052Z,16.67
2022-12-27T03:06:36.923Z,15.60
2022-12-27T03:10:02.258Z,14.52
2022-12-27T03:16:09.424Z,14.70
2022-12-27T03:18:54.295Z,13.80
2022-12-27T03:21:51.846Z,14.95
2022-12-27T03:47:57.879Z,9.30
2022-12-27T03:50:50.615Z,8.38
2022-12-27T04:15:26.145Z,3.95
2022-12-27T04:18:11.881Z,3.35
2022-12-27T04:20:57.296Z,3.42
2022-12-27T04:23:42.969Z,3.58
2022-12-27T04:26:28.578Z,3.12
2022-12-27T04:33:19.454Z,2.92
2022-12-27T04:35:46.120Z,3.10
2022-12-27T04:41:09.616Z,2.90
2022-12-27T04:49:36.176Z,3.50
2022-12-27T04:52:21.665Z,3.17
2022-12-27T04:54:57.085Z,3.58
2022-12-27T04:57:24.043Z,2.83
2022-12-27T05:00:09.172Z,3.15
2022-12-27T05:02:36.453Z,3.87
2022-12-27T05:05:53.182Z,3.97
2022-12-27T05:08:50.823Z,4.35
2022-12-27T05:11:36.475Z,4.35
2022-12-27T05:14:06.788Z,4.37
2022-12-27T05:16:39.428Z,5.18
2022-12-27T05:19:40.062Z,4.72
2022-12-27T05:22:47.708Z,4.53
2022-12-27T05:25:34.938Z,4.90
2022-12-27T05:37:09.459Z,5.40
2022-12-27T05:39:36.132Z,4.90
2022-12-27T05:42:03.261Z,5.25
2022-12-27T05:44:29.866Z,5.65
2022-12-27T05:46:56.632Z,5.40
2022-12-27T05:49:25.663Z,5.35
2022-12-27T05:51:52.199Z,5.55
2022-12-27T05:54:18.745Z,5.70
2022-12-27T05:56:45.341Z,5.50
2022-12-27T05:59:11.853Z,5.32
2022-12-27T06:01:38.533Z,5.53
2022-12-27T06:04:05.326Z,5.15
2022-12-27T06:06:31.877Z,4.85
2022-12-27T06:08:58.476Z,5.47
2022-12-27T06:11:25.042Z,5.30
2022-12-27T06:13:53.323Z,5.53
2022-12-27T06:16:21.938Z,6.60
2022-12-27T06:18:48.654Z,6.70
2022-12-27T06:21:18.406Z,7.03
2022-12-27T06:23:45.935Z,7.30
2022-12-27T06:26:24.505Z,6.30
2022-12-27T06:28:52.160Z,5.70
2022-12-27T06:31:20.104Z,5.65
2022-12-27T06:33:48.111Z,5.47
2022-12-27T06:36:17.737Z,4.82
2022-12-27T06:38:45.103Z,4.03
2022-12-27T06:41:14.434Z,3.60
2022-12-27T06:43:41.581Z,2.87
2022-12-27T06:46:17.031Z,2.58
2022-12-27T06:48:44.767Z,2.80
2022-12-27T06:51:12.959Z,2.85
2022-12-27T06:53:39.751Z,2.65
2022-12-27T06:56:08.495Z,3.17
2022-12-27T06:58:35.091Z,2.92
2022-12-27T07:01:20.247Z,3.00
2022-12-27T07:04:00.579Z,3.05
2022-12-27T07:06:30.111Z,2.95
2022-12-27T07:08:58.396Z,2.70
2022-12-27T07:11:25.348Z,2.78
2022-12-27T07:13:54.857Z,2.80
2022-12-27T07:16:24.441Z,2.37
2022-12-27T07:18:51.326Z,2.87
2022-12-27T07:21:20.517Z,2.10
2022-12-27T07:23:47.761Z,2.40
2022-12-27T07:26:20.237Z,1.95
2022-12-27T07:28:47.080Z,2.22
2022-12-27T07:31:16.540Z,2.08
2022-12-27T07:33:43.837Z,1.80
2022-12-27T07:36:17.234Z,2.03
2022-12-27T07:38:44.446Z,1.87
2022-12-27T07:41:12.249Z,1.80
2022-12-27T07:43:38.977Z,1.83
2022-12-27T07:46:14.088Z,1.65
2022-12-27T07:48:41.355Z,1.67
2022-12-27T07:51:08.583Z,1.02
2022-12-27T07:53:35.574Z,1.73
2022-12-27T07:56:06.745Z,2.28
2022-12-27T07:58:36.892Z,2.78
2022-12-27T08:01:04.691Z,2.45
2022-12-27T08:03:31.437Z,2.15
2022-12-27T08:05:58.039Z,1.20
2022-12-27T08:08:31.731Z,1.25
2022-12-27T08:11:05.179Z,1.50
2022-12-27T08:13:32.455Z,5.20
2022-12-27T08:16:01.629Z,1.90
2022-12-27T08:18:28.490Z,1.48
2022-12-27T08:20:55.810Z,1.15
2022-12-27T08:23:22.440Z,0.90
2022-12-27T08:25:49.306Z,1.48
2022-12-27T08:28:17.822Z,1.70
2022-12-27T08:30:45.621Z,1.30
2022-12-27T08:33:12.831Z,0.90
2022-12-27T08:35:52.713Z,1.27
2022-12-27T08:38:20.363Z,0.68
2022-12-27T08:40:46.997Z,1.10
2022-12-27T08:43:14.311Z,1.00
2022-12-27T08:45:41.220Z,1.15
2022-12-27T08:48:08.527Z,2.50
2022-12-27T08:50:35.190Z,1.37
2022-12-27T08:53:04.224Z,1.33
2022-12-27T08:55:31.889Z,1.00
2022-12-27T08:58:09.254Z,1.33
2022-12-27T09:00:40.602Z,1.60
2022-12-27T09:03:07.256Z,0.65
2022-12-27T09:05:41.188Z,1.00
2022-12-27T09:08:08.377Z,0.98
2022-12-27T09:10:34.926Z,0.60
2022-12-27T09:13:01.496Z,0.90
2022-12-27T09:15:28.067Z,0.60
2022-12-27T09:17:54.639Z,0.60
2022-12-27T09:20:21.232Z,0.90
2022-12-27T09:22:47.785Z,0.45
2022-12-27T09:25:14.355Z,0.47
2022-12-27T09:27:40.905Z,0.70
2022-12-27T09:30:08.602Z,0.60
2022-12-27T09:32:35.503Z,0.65
2022-12-27T09:35:03.539Z,0.55
2022-12-27T09:37:31.716Z,0.88
2022-12-27T09:39:58.336Z,0.68
2022-12-27T09:43:01.955Z,0.50
2022-12-27T09:45:43.131Z,0.70
2022-12-27T09:48:39.567Z,0.70
2022-12-27T09:51:19.137Z,0.80
2022-12-27T09:54:04.145Z,0.80
2022-12-27T09:56:54.508Z,0.62
2022-12-27T09:59:30.526Z,0.65
2022-12-27T10:01:57.141Z,0.90
2022-12-27T10:04:24.257Z,0.65
2022-12-27T10:07:13.103Z,0.80
2022-12-27T10:10:03.217Z,1.00
2022-12-27T10:12:35.761Z,0.70
2022-12-27T10:15:19.132Z,0.88
2022-12-27T10:20:26.244Z,0.82
2022-12-27T10:23:14.417Z,0.70
2022-12-27T10:25:41.403Z,1.00
2022-12-27T10:28:25.572Z,1.10
2022-12-27T10:31:20.279Z,0.98
2022-12-27T10:33:48.894Z,0.90
2022-12-27T10:36:21.003Z,0.90
2022-12-27T10:41:55.904Z,0.73
2022-12-27T10:44:33.050Z,0.85
2022-12-27T10:47:00.739Z,0.80
2022-12-27T10:49:28.780Z,0.90
2022-12-27T10:52:22.075Z,0.70
2022-12-27T10:54:54.148Z,1.10
2022-12-27T10:57:36.194Z,0.80
2022-12-27T11:00:23.576Z,0.90
2022-12-27T11:02:53.470Z,0.90
2022-12-27T11:05:30.200Z,1.00
2022-12-27T11:08:04.638Z,0.82
2022-12-27T11:10:34.226Z,1.00
2022-12-27T11:13:14.636Z,1.27
2022-12-27T11:15:58.280Z,0.98
2022-12-27T11:18:25.424Z,1.17
2022-12-27T11:21:00.475Z,1.20
2022-12-27T11:23:43.276Z,1.00
2022-12-27T11:26:19.969Z,0.95
2022-12-27T11:29:02.085Z,1.00
2022-12-27T11:31:48.702Z,0.90
2022-12-27T11:34:21.207Z,0.70
2022-12-27T11:36:52.157Z,1.00
2022-12-27T11:39:41.639Z,1.12
2022-12-27T11:42:19.434Z,1.00
2022-12-27T12:20:07.931Z,0.93
2022-12-27T12:22:45.367Z,1.02
2022-12-27T12:25:38.868Z,1.12
2022-12-27T12:48:46.517Z,1.42
2022-12-27T12:51:50.744Z,1.10
2022-12-27T12:54:39.031Z,1.10
2022-12-27T12:57:21.444Z,1.10
2022-12-27T13:00:09.298Z,1.00
2022-12-27T13:03:01.022Z,1.15
2022-12-27T13:08:39.006Z,0.85
2022-12-27T13:11:33.542Z,1.02
2022-12-27T13:14:34.394Z,1.00
2022-12-27T13:17:21.502Z,1.00
2022-12-27T13:20:14.727Z,1.20
2022-12-27T13:23:01.608Z,1.20
2022-12-27T13:26:07.639Z,0.98
2022-12-27T13:29:35.915Z,1.10
2022-12-27T13:32:05.344Z,1.58
2022-12-27T13:34:58.915Z,0.93
2022-12-27T13:40:39.110Z,1.10
2022-12-27T13:43:14.334Z,1.00
2022-12-27T14:04:59.191Z,1.30
2022-12-27T14:07:48.198Z,1.40
2022-12-27T14:10:37.002Z,1.17
2022-12-27T14:16:11.848Z,1.35
2022-12-27T14:18:38.445Z,1.83
2022-12-27T14:21:34.971Z,1.45
2022-12-27T14:24:11.270Z,1.33
2022-12-27T14:27:03.747Z,1.35
2022-12-27T14:30:02.175Z,1.40
2022-12-27T14:32:31.335Z,1.33
2022-12-27T14:35:36.832Z,1.77
2022-12-27T14:38:25.196Z,1.37
2022-12-27T14:41:24.925Z,1.45
2022-12-27T14:44:25.967Z,1.60
2022-12-27T14:47:04.615Z,2.00
2022-12-27T14:49:40.356Z,2.10
2022-12-27T14:52:13.114Z,1.70
2022-12-27T14:55:22.767Z,1.70
2022-12-27T14:58:18.259Z,1.80
2022-12-27T15:01:09.058Z,1.50
2022-12-27T15:34:21.321Z,3.58
2022-12-27T15:36:55.172Z,4.20
2022-12-27T15:39:37.540Z,8.30
2022-12-27T15:45:12.044Z,7.82
2022-12-27T15:48:12.669Z,6.55
2022-12-27T15:51:06.475Z,5.20
2022-12-27T15:53:42.908Z,4.43
2022-12-27T15:56:36.781Z,4.12
2022-12-27T16:20:36.401Z,5.47
2022-12-27T16:25:46.084Z,4.03
2022-12-27T16:28:27.787Z,3.72
2022-12-27T16:30:56.577Z,3.80
2022-12-27T16:33:26.232Z,3.90
2022-12-27T16:36:13.531Z,3.33
2022-12-27T16:38:43.832Z,3.70
2022-12-27T16:41:25.763Z,3.95
2022-12-27T16:44:17.960Z,3.80
2022-12-27T16:46:59.984Z,5.30
2022-12-27T16:50:41.327Z,5.20
2022-12-27T16:56:25.868Z,5.00
2022-12-27T16:58:52.658Z,5.30
2022-12-27T17:01:32.665Z,5.85
2022-12-27T17:04:00.592Z,7.00
2022-12-27T17:06:33.192Z,6.90
2022-12-27T17:09:38.003Z,5.75
2022-12-27T17:12:22.132Z,6.78
2022-12-27T17:22:39.243Z,6.32
2022-12-27T17:25:06.673Z,5.47
2022-12-27T17:27:45.980Z,5.93
2022-12-27T17:30:44.235Z,5.55
2022-12-27T17:36:09.152Z,5.97
2022-12-27T17:39:01.917Z,6.07
2022-12-27T17:42:04.848Z,7.05
2022-12-27T17:45:06.405Z,7.12
2022-12-27T17:47:37.198Z,6.35
2022-12-27T17:53:34.854Z,18.50
2022-12-27T17:56:29.501Z,20.60
2022-12-27T17:59:13.838Z,20.05
2022-12-27T18:02:28.860Z,20.67
2022-12-27T18:05:06.443Z,20.88
2022-12-27T18:07:35.136Z,16.23
2022-12-27T18:10:03.689Z,15.63
2022-12-27T18:12:36.585Z,12.52
2022-12-27T18:15:07.033Z,7.15
2022-12-27T18:46:01.943Z,4.22
2022-12-27T18:48:35.138Z,3.62
2022-12-27T18:51:03.146Z,4.78
2022-12-27T18:53:38.674Z,5.70
2022-12-27T18:56:29.333Z,5.57
2022-12-27T19:03:25.129Z,5.80
2022-12-27T19:06:12.663Z,4.75
2022-12-27T19:08:46.176Z,4.50
2022-12-27T19:11:33.055Z,5.20
2022-12-27T19:14:22.767Z,5.85
2022-12-27T19:17:22.825Z,6.12
2022-12-27T20:01:19.400Z,3.70
2022-12-27T20:03:46.101Z,3.92
2022-12-27T20:06:22.965Z,3.85
2022-12-27T20:08:53.286Z,4.00
2022-12-27T20:11:22.009Z,4.40
2022-12-27T20:14:14.649Z,4.22
2022-12-27T20:16:42.437Z,5.40
2022-12-27T20:19:13.402Z,6.12
2022-12-27T20:21:40.626Z,6.40
2022-12-27T20:28:01.309Z,6.07
2022-12-27T20:30:32.989Z,5.03
2022-12-27T21:27:01.426Z,4.00
2022-12-27T21:37:24.183Z,3.70
2022-12-27T21:48:42.800Z,3.00
2022-12-27T21:51:14.875Z,3.40
2022-12-27T21:53:42.549Z,3.97
2022-12-27T21:56:11.561Z,3.95
2022-12-27T21:58:39.405Z,4.30
2022-12-27T22:01:12.875Z,4.05
2022-12-27T22:03:41.774Z,3.90
2022-12-27T22:06:11.094Z,4.40
2022-12-27T22:08:37.929Z,3.90
2022-12-27T22:11:04.757Z,4.20
2022-12-27T22:13:32.925Z,4.60
2022-12-27T22:16:01.923Z,4.45
2022-12-27T22:18:36.925Z,5.22
2022-12-27T22:21:07.957Z,5.25
2022-12-27T22:23:41.544Z,5.18
2022-12-27T22:26:13.596Z,4.97
2022-12-27T22:28:41.003Z,4.30
2022-12-27T22:31:09.640Z,3.90
2022-12-27T22:33:36.805Z,4.28
2022-12-27T22:36:09.353Z,4.00
2022-12-27T22:38:37.032Z,4.60
2022-12-27T22:41:15.084Z,4.32
2022-12-27T22:43:43.830Z,4.78
2022-12-27T22:46:13.145Z,4.60
2022-12-27T22:48:40.937Z,4.00
2022-12-27T22:51:19.506Z,3.70
2022-12-27T22:53:47.138Z,4.25
2022-12-27T22:56:16.654Z,3.83
2022-12-27T22:59:09.140Z,4.32
2022-12-27T23:01:36.444Z,3.75
2022-12-27T23:04:05.827Z,4.00
2022-12-27T23:06:34.771Z,3.92
2022-12-27T23:09:48.807Z,3.95
2022-12-27T23:15:07.249Z,3.55
2022-12-27T23:17:33.795Z,3.53
2022-12-27T23:20:00.343Z,3.97
2022-12-27T23:22:26.922Z,3.78
2022-12-27T23:24:53.736Z,4.18
2022-12-27T23:27:20.440Z,4.43
2022-12-27T23:29:47.159Z,4.12
2022-12-27T23:32:13.831Z,3.92
2022-12-27T23:34:40.393Z,4.50
2022-12-27T23:37:07.038Z,4.25
2022-12-27T23:39:33.647Z,4.20
2022-12-27T23:42:15.278Z,4.37
2022-12-27T23:44:41.832Z,4.32
2022-12-27T23:47:08.445Z,4.30
2022-12-27T23:49:35.076Z,4.62
2022-12-27T23:52:25.729Z,4.80
